Time;durP1;ratioP1;P1;durP2;ratioP2;P2;SDS_P1;SDS_P2;PMS_P1;PMS_P2;Temp;Humidity;BMP_temperature;BMP_pressure;BME280_temperature;BME280_humidity;BME280_pressure;Samples;Min_cycle;Max_cycle;Signal;HPM_P1;HPM_P2
2023/05/03 00:01:40;;;;;;;4.30;3.90;;;5.00;99.90;;;;;;6246906;23;20192;-68
2023/05/03 00:04:07;;;;;;;5.97;4.55;;;5.00;99.90;;;;;;6246628;23;20211;-68
2023/05/03 00:06:34;;;;;;;4.93;4.43;;;5.00;99.90;;;;;;6246924;22;20544;-68
2023/05/03 00:09:01;;;;;;;4.68;4.25;;;4.90;99.90;;;;;;6246537;23;20230;-69
2023/05/03 00:11:28;;;;;;;4.93;4.43;;;4.90;99.90;;;;;;6246916;23;20172;-68
2023/05/03 00:13:54;;;;;;;4.82;4.38;;;4.80;99.90;;;;;;6246974;23;20179;-68
2023/05/03 00:16:22;;;;;;;5.03;4.55;;;4.80;99.90;;;;;;6246751;22;20196;-67
2023/05/03 00:18:49;;;;;;;5.10;4.60;;;4.80;99.90;;;;;;6246862;23;20176;-68
2023/05/03 00:21:16;;;;;;;4.22;3.92;;;4.80;99.90;;;;;;6246448;23;20192;-68
2023/05/03 00:23:42;;;;;;;4.70;4.30;;;4.80;99.90;;;;;;6247067;23;20172;-68
2023/05/03 00:26:09;;;;;;;5.20;4.68;;;4.70;99.90;;;;;;6246662;22;20199;-68
2023/05/03 00:28:36;;;;;;;4.45;4.05;;;4.70;99.90;;;;;;6246729;23;20183;-68
2023/05/03 00:31:09;;;;;;;4.68;4.30;;;4.70;99.90;;;;;;6246745;23;20176;-68
2023/05/03 00:33:37;;;;;;;4.68;4.28;;;4.60;99.90;;;;;;6246866;22;20176;-68
2023/05/03 00:36:08;;;;;;;4.40;4.00;;;4.60;99.90;;;;;;6246636;22;20195;-68
2023/05/03 00:38:35;;;;;;;5.22;4.57;;;4.60;99.90;;;;;;6246709;22;20180;-68
2023/05/03 00:41:02;;;;;;;5.07;4.65;;;4.60;99.90;;;;;;6246551;23;20267;-68
2023/05/03 00:43:29;;;;;;;4.85;4.45;;;4.50;99.90;;;;;;6247550;23;20199;-68
2023/05/03 00:45:56;;;;;;;4.45;4.07;;;4.50;99.90;;;;;;6246545;22;20192;-68
2023/05/03 00:48:23;;;;;;;4.80;4.38;;;4.40;99.90;;;;;;6246108;23;20532;-68
2023/05/03 00:50:53;;;;;;;4.22;3.85;;;4.40;99.90;;;;;;6246598;23;20183;-68
2023/05/03 00:53:20;;;;;;;4.43;4.13;;;4.40;99.90;;;;;;6246101;23;20505;-68
2023/05/03 00:55:48;;;;;;;4.10;3.72;;;4.30;99.90;;;;;;6246558;22;20196;-68
2023/05/03 00:58:15;;;;;;;3.92;3.63;;;4.30;99.90;;;;;;6246440;23;20183;-68
2023/05/03 01:00:42;;;;;;;4.45;3.88;;;4.30;99.90;;;;;;6247120;23;20258;-68
2023/05/03 01:03:08;;;;;;;4.38;3.97;;;4.30;99.90;;;;;;6246421;23;20255;-68
2023/05/03 01:05:46;;;;;;;4.35;4.05;;;4.20;99.90;;;;;;6246528;22;20199;-68
2023/05/03 01:08:23;;;;;;;5.05;4.65;;;4.20;99.90;;;;;;6246273;23;20188;-68
2023/05/03 01:10:57;;;;;;;4.50;4.10;;;4.20;99.90;;;;;;6245973;23;20601;-69
2023/05/03 01:13:32;;;;;;;4.15;3.83;;;4.10;99.90;;;;;;6246424;22;20160;-68
2023/05/03 01:16:03;;;;;;;5.18;4.78;;;4.10;99.90;;;;;;6246340;22;20195;-68
2023/05/03 01:18:34;;;;;;;5.50;4.30;;;4.10;99.90;;;;;;6246348;23;20163;-68
2023/05/03 01:21:04;;;;;;;4.47;4.07;;;4.10;99.90;;;;;;6246315;23;20168;-68
2023/05/03 01:23:43;;;;;;;4.15;3.85;;;4.10;99.90;;;;;;6246363;23;20195;-68
2023/05/03 01:26:20;;;;;;;4.55;4.15;;;4.10;99.90;;;;;;6246177;22;20669;-68
2023/05/03 01:28:47;;;;;;;4.40;3.88;;;4.10;99.90;;;;;;6245917;23;20602;-68
2023/05/03 01:31:17;;;;;;;4.32;3.92;;;4.10;99.90;;;;;;6245878;23;20179;-68
2023/05/03 01:33:48;;;;;;;4.03;3.63;;;4.00;99.90;;;;;;6246291;23;20168;-68
2023/05/03 01:36:22;;;;;;;4.68;4.20;;;4.00;99.90;;;;;;6245767;22;20657;-68
2023/05/03 01:38:49;;;;;;;4.45;4.05;;;4.00;99.90;;;;;;6246215;23;20498;-68
2023/05/03 01:41:20;;;;;;;4.22;3.83;;;4.00;99.90;;;;;;6245991;23;20195;-68
2023/05/03 01:43:48;;;;;;;4.15;3.85;;;4.00;99.90;;;;;;6246180;23;20157;-68
2023/05/03 01:46:15;;;;;;;4.72;4.25;;;3.90;99.90;;;;;;6246092;22;20196;-68
2023/05/03 01:48:42;;;;;;;3.75;3.45;;;3.90;99.90;;;;;;6246044;23;20187;-68
2023/05/03 01:51:08;;;;;;;4.30;4.00;;;3.90;99.90;;;;;;6246090;23;20259;-68
2023/05/03 01:53:36;;;;;;;4.65;4.15;;;3.90;99.90;;;;;;6246040;23;20176;-68
2023/05/03 01:56:03;;;;;;;5.22;4.43;;;3.90;99.90;;;;;;6245724;22;20695;-68
2023/05/03 01:58:31;;;;;;;3.92;3.47;;;3.90;99.90;;;;;;6241834;22;20195;-67
2023/05/03 02:00:57;;;;;;;4.15;3.60;;;3.80;99.90;;;;;;6215774;23;20161;-67
2023/05/03 02:03:24;;;;;;;4.13;3.72;;;3.80;99.90;;;;;;6216090;23;20177;-68
2023/05/03 02:05:51;;;;;;;4.45;4.15;;;3.80;99.90;;;;;;6215779;23;20260;-67
2023/05/03 02:08:17;;;;;;;3.42;3.13;;;3.70;99.90;;;;;;6215410;23;20501;-67
2023/05/03 02:10:44;;;;;;;3.35;3.15;;;3.70;99.90;;;;;;6215826;23;20184;-66
2023/05/03 02:13:11;;;;;;;4.53;3.90;;;3.70;99.90;;;;;;6215735;23;20169;-67
2023/05/03 02:15:39;;;;;;;5.72;3.53;;;3.70;99.90;;;;;;6215683;23;20177;-66
2023/05/03 02:18:07;;;;;;;4.13;3.83;;;3.60;99.90;;;;;;6215867;23;20195;-66
2023/05/03 02:20:36;;;;;;;3.75;3.45;;;3.60;99.90;;;;;;6215757;23;20238;-66
2023/05/03 02:23:03;;;;;;;4.18;3.60;;;3.60;99.90;;;;;;6216987;23;20207;-66
2023/05/03 02:25:30;;;;;;;3.30;3.10;;;3.60;99.90;;;;;;6218048;23;20172;-66
2023/05/03 02:27:57;;;;;;;3.75;3.45;;;3.60;99.90;;;;;;6217670;23;20179;-66
2023/05/03 02:30:23;;;;;;;3.95;3.42;;;3.60;99.90;;;;;;6217291;23;20692;-66
2023/05/03 02:32:51;;;;;;;4.63;4.10;;;3.60;99.90;;;;;;6217600;23;20537;-66
2023/05/03 02:35:18;;;;;;;4.13;3.67;;;3.60;99.90;;;;;;6217559;23;20180;-67
2023/05/03 02:37:45;;;;;;;3.80;3.50;;;3.60;99.90;;;;;;6217810;23;20177;-66
2023/05/03 02:40:12;;;;;;;4.50;4.03;;;3.50;99.90;;;;;;6217402;23;20280;-66
2023/05/03 02:42:40;;;;;;;3.97;3.67;;;3.60;99.90;;;;;;6217522;23;20193;-67
2023/05/03 02:45:07;;;;;;;4.40;3.95;;;3.50;99.90;;;;;;6217398;23;20179;-66
2023/05/03 02:47:34;;;;;;;5.03;4.25;;;3.50;99.90;;;;;;6217717;23;20181;-66
2023/05/03 02:50:02;;;;;;;4.03;3.70;;;3.50;99.90;;;;;;6217340;23;20204;-67
2023/05/03 02:52:29;;;;;;;4.40;4.10;;;3.50;99.90;;;;;;6217325;23;20168;-67
2023/05/03 02:54:55;;;;;;;5.78;4.07;;;3.50;99.90;;;;;;6217301;23;20176;-67
2023/05/03 02:57:22;;;;;;;5.65;4.18;;;3.50;99.90;;;;;;6216975;23;20642;-67
2023/05/03 02:59:49;;;;;;;4.20;3.83;;;3.50;99.90;;;;;;6217055;23;20200;-67
2023/05/03 03:02:15;;;;;;;4.80;4.40;;;3.50;99.90;;;;;;6217160;23;20193;-67
2023/05/03 03:04:42;;;;;;;4.82;4.38;;;3.50;99.90;;;;;;6217254;23;20176;-66
2023/05/03 03:07:10;;;;;;;5.32;3.67;;;3.50;99.90;;;;;;6217164;23;20172;-67
2023/05/03 03:09:37;;;;;;;3.75;3.45;;;3.50;99.90;;;;;;6217086;23;20196;-67
2023/05/03 03:12:04;;;;;;;5.03;4.53;;;3.40;99.90;;;;;;6217117;23;20180;-66
2023/05/03 03:14:31;;;;;;;4.75;4.25;;;3.40;99.90;;;;;;6217213;23;20227;-66
2023/05/03 03:16:58;;;;;;;4.55;4.15;;;3.40;99.90;;;;;;6217335;23;20173;-66
2023/05/03 03:19:24;;;;;;;4.75;4.28;;;3.40;99.90;;;;;;6217141;23;20192;-67
2023/05/03 03:21:51;;;;;;;4.40;4.00;;;3.40;99.90;;;;;;6216940;23;20189;-67
2023/05/03 03:24:19;;;;;;;4.15;3.78;;;3.40;99.90;;;;;;6217284;23;20176;-67
2023/05/03 03:26:46;;;;;;;4.93;4.47;;;3.30;99.90;;;;;;6218643;23;20173;-67
2023/05/03 03:29:12;;;;;;;4.22;3.90;;;3.30;99.90;;;;;;6218721;23;20203;-67
2023/05/03 03:31:39;;;;;;;4.13;3.83;;;3.30;99.90;;;;;;6218989;23;20180;-68
2023/05/03 03:34:06;;;;;;;4.20;3.85;;;3.30;99.90;;;;;;6217953;23;20223;-67
2023/05/03 03:36:33;;;;;;;4.68;4.20;;;3.30;99.90;;;;;;6216990;23;20184;-67
2023/05/03 03:38:59;;;;;;;4.53;4.10;;;3.30;99.90;;;;;;6216487;23;20653;-67
2023/05/03 03:41:27;;;;;;;4.90;4.03;;;3.20;99.90;;;;;;6216767;23;20259;-68
2023/05/03 03:43:54;;;;;;;4.85;4.25;;;3.20;99.90;;;;;;6216909;23;20181;-68
2023/05/03 03:46:21;;;;;;;5.00;4.53;;;3.20;99.90;;;;;;6216534;23;20618;-68
2023/05/03 03:48:47;;;;;;;5.10;4.60;;;3.20;99.90;;;;;;6216885;23;20200;-67
2023/05/03 03:51:14;;;;;;;5.05;4.50;;;3.20;99.90;;;;;;6217784;23;20187;-67
2023/05/03 03:53:41;;;;;;;4.35;3.95;;;3.20;99.90;;;;;;6216814;23;20501;-66
2023/05/03 03:56:08;;;;;;;6.35;4.85;;;3.10;99.90;;;;;;6216527;23;20161;-66
2023/05/03 03:58:36;;;;;;;6.18;5.13;;;3.10;99.90;;;;;;6216528;23;20216;-67
2023/05/03 04:01:03;;;;;;;5.50;4.57;;;3.10;99.90;;;;;;6216766;23;20235;-67
2023/05/03 04:03:30;;;;;;;4.88;4.20;;;3.10;99.90;;;;;;6216594;23;20197;-67
2023/05/03 04:05:57;;;;;;;5.50;4.65;;;3.10;99.90;;;;;;6217521;23;20172;-68
2023/05/03 04:08:23;;;;;;;6.55;5.28;;;3.10;99.90;;;;;;6216785;23;20180;-68
2023/05/03 04:10:50;;;;;;;4.50;4.10;;;3.10;99.90;;;;;;6216835;23;20173;-68
2023/05/03 04:13:17;;;;;;;5.35;4.85;;;3.20;99.90;;;;;;6217429;23;20173;-69
2023/05/03 04:15:45;;;;;;;4.28;3.88;;;3.20;99.90;;;;;;6216701;23;20177;-68
2023/05/03 04:18:12;;;;;;;6.15;4.75;;;3.20;99.90;;;;;;6216779;23;20173;-68
2023/05/03 04:20:38;;;;;;;4.93;4.43;;;3.20;99.90;;;;;;6216317;23;20183;-68
2023/05/03 04:23:05;;;;;;;7.07;5.07;;;3.20;99.90;;;;;;6216529;23;20203;-68
2023/05/03 04:25:32;;;;;;;6.80;5.03;;;3.30;99.90;;;;;;6216526;23;20177;-68
2023/05/03 04:27:59;;;;;;;5.57;4.43;;;3.40;99.90;;;;;;6216411;23;20181;-68
2023/05/03 04:30:25;;;;;;;6.45;4.78;;;3.40;99.90;;;;;;6216307;23;20197;-69
2023/05/03 04:32:54;;;;;;;5.82;4.45;;;3.50;99.90;;;;;;6216488;23;20173;-68
2023/05/03 04:35:21;;;;;;;6.07;5.53;;;3.60;99.90;;;;;;6216267;23;20176;-67
2023/05/03 04:37:47;;;;;;;5.80;4.85;;;3.70;99.90;;;;;;6216356;23;20183;-67
2023/05/03 04:40:16;;;;;;;5.72;5.07;;;3.70;99.90;;;;;;6216241;23;20192;-68
2023/05/03 04:42:42;;;;;;;6.20;5.30;;;3.90;99.90;;;;;;6216292;23;20688;-65
2023/05/03 04:45:10;;;;;;;7.20;5.30;;;4.00;99.90;;;;;;6215882;23;20173;-66
2023/05/03 04:47:37;;;;;;;6.28;5.10;;;4.10;99.90;;;;;;6215797;23;20505;-66
2023/05/03 04:50:06;;;;;;;6.38;5.35;;;4.30;99.90;;;;;;6216206;23;20192;-66
2023/05/03 04:52:33;;;;;;;5.25;4.75;;;4.40;99.90;;;;;;6216236;23;20173;-66
2023/05/03 04:55:00;;;;;;;5.78;5.07;;;4.50;99.90;;;;;;6217128;23;20181;-66
2023/05/03 04:57:26;;;;;;;5.00;4.60;;;4.70;99.90;;;;;;6216057;23;20172;-66
2023/05/03 04:59:53;;;;;;;6.30;5.22;;;4.90;99.90;;;;;;6215727;23;20200;-66
2023/05/03 05:02:21;;;;;;;6.90;5.40;;;5.00;99.90;;;;;;6216014;23;20220;-66
2023/05/03 05:04:48;;;;;;;6.82;6.13;;;5.10;99.90;;;;;;6216072;23;20176;-66
2023/05/03 05:07:16;;;;;;;7.78;6.00;;;5.20;99.90;;;;;;6216115;23;20180;-68
2023/05/03 05:09:43;;;;;;;8.95;6.63;;;5.30;99.90;;;;;;6215989;23;20279;-67
2023/05/03 05:12:10;;;;;;;9.63;5.97;;;5.40;99.90;;;;;;6216170;23;20181;-67
2023/05/03 05:14:36;;;;;;;7.93;6.38;;;5.50;99.90;;;;;;6216111;23;20181;-67
2023/05/03 05:17:03;;;;;;;7.35;6.03;;;5.60;99.90;;;;;;6216186;23;20177;-67
2023/05/03 05:19:30;;;;;;;6.25;5.25;;;5.80;99.90;;;;;;6216183;23;20204;-67
2023/05/03 05:21:56;;;;;;;6.13;5.18;;;6.10;99.90;;;;;;6216403;23;20184;-67
2023/05/03 05:24:24;;;;;;;8.82;6.50;;;6.40;99.90;;;;;;6215895;23;20254;-67
2023/05/03 05:26:51;;;;;;;7.35;6.55;;;6.80;99.90;;;;;;6216036;23;20232;-66
2023/05/03 05:29:18;;;;;;;7.50;6.10;;;7.20;99.90;;;;;;6215375;23;20733;-67
2023/05/03 05:31:45;;;;;;;7.68;5.22;;;7.60;99.90;;;;;;6215906;23;20196;-68
2023/05/03 05:34:11;;;;;;;7.88;5.90;;;8.00;99.90;;;;;;6215855;23;20168;-67
2023/05/03 05:36:38;;;;;;;7.47;6.35;;;8.40;99.90;;;;;;6215882;23;20180;-66
2023/05/03 05:39:05;;;;;;;8.38;6.07;;;8.50;99.90;;;;;;6215790;23;20192;-66
2023/05/03 05:41:33;;;;;;;6.05;5.45;;;8.70;99.90;;;;;;6216829;23;20177;-66
2023/05/03 05:43:59;;;;;;;7.30;6.15;;;8.90;99.90;;;;;;6215705;23;20189;-67
2023/05/03 05:46:26;;;;;;;11.80;7.80;;;9.10;99.90;;;;;;6215490;23;20188;-67
2023/05/03 05:48:53;;;;;;;11.13;7.82;;;9.10;99.90;;;;;;6215281;23;20696;-67
2023/05/03 05:51:20;;;;;;;8.38;7.30;;;9.20;99.90;;;;;;6215663;23;20180;-67
2023/05/03 05:53:46;;;;;;;11.65;7.55;;;9.30;99.90;;;;;;6216135;23;20173;-67
2023/05/03 05:56:13;;;;;;;11.50;7.30;;;9.30;99.90;;;;;;6216226;23;20239;-67
2023/05/03 05:58:41;;;;;;;11.50;8.50;;;9.30;99.90;;;;;;6218416;23;20207;-67
2023/05/03 06:01:08;;;;;;;8.82;7.40;;;9.40;99.90;;;;;;6217883;23;20169;-67
2023/05/03 06:03:35;;;;;;;13.00;8.50;;;9.60;99.90;;;;;;6217669;23;20235;-67
2023/05/03 06:06:01;;;;;;;12.23;8.57;;;9.80;99.90;;;;;;6217351;23;20568;-67
2023/05/03 06:08:28;;;;;;;10.77;8.30;;;10.00;99.90;;;;;;6217655;23;20173;-67
2023/05/03 06:10:55;;;;;;;9.50;7.22;;;10.40;99.90;;;;;;6217503;23;20180;-67
2023/05/03 06:13:22;;;;;;;11.40;7.18;;;10.90;99.90;;;;;;6217793;23;20169;-67
2023/05/03 06:15:50;;;;;;;8.18;6.45;;;11.50;99.90;;;;;;6217709;23;20179;-67
2023/05/03 06:18:16;;;;;;;7.28;5.72;;;11.90;99.90;;;;;;6217446;23;20518;-67
2023/05/03 06:20:43;;;;;;;7.00;6.05;;;12.50;99.90;;;;;;6218291;23;20180;-67
2023/05/03 06:23:10;;;;;;;6.18;5.57;;;12.80;99.90;;;;;;6217234;23;20192;-67
2023/05/03 06:25:36;;;;;;;6.10;5.50;;;13.60;99.90;;;;;;6217680;23;20184;-67
2023/05/03 06:28:03;;;;;;;5.78;5.28;;;14.20;99.90;;;;;;6217693;23;20176;-67
2023/05/03 06:30:30;;;;;;;8.77;5.65;;;14.90;99.90;;;;;;6217521;23;20197;-67
2023/05/03 06:32:58;;;;;;;5.55;5.05;;;16.00;99.90;;;;;;6217967;23;20172;-66
2023/05/03 06:35:25;;;;;;;5.43;4.90;;;17.10;99.90;;;;;;6217564;23;20179;-67
2023/05/03 06:37:52;;;;;;;5.10;4.60;;;;;;;;;;6217174;23;20476;-66
2023/05/03 06:40:19;;;;;;;5.40;4.90;;;18.40;90.60;;;;;;6217297;23;20265;-67
2023/05/03 06:42:46;;;;;;;4.70;4.10;;;18.10;98.70;;;;;;6217333;23;20195;-67
2023/05/03 06:45:12;;;;;;;3.97;3.67;;;18.40;93.90;;;;;;6217314;23;20173;-67
2023/05/03 06:47:41;;;;;;;5.78;5.28;;;18.40;91.30;;;;;;6217371;23;20176;-67
2023/05/03 06:50:10;;;;;;;4.75;4.28;;;18.30;80.70;;;;;;6217285;23;20192;-68
2023/05/03 06:52:36;;;;;;;5.05;4.65;;;18.20;90.30;;;;;;6217700;23;20180;-67
2023/05/03 06:55:04;;;;;;;6.80;6.10;;;18.00;83.10;;;;;;6217066;23;20176;-67
2023/05/03 06:57:31;;;;;;;5.20;4.78;;;17.00;91.40;;;;;;6217296;23;20172;-67
2023/05/03 06:59:58;;;;;;;5.45;4.03;;;17.50;97.80;;;;;;6216789;23;20223;-67
2023/05/03 07:02:25;;;;;;;4.75;3.92;;;18.70;98.00;;;;;;6217264;23;20195;-67
2023/05/03 07:04:52;;;;;;;5.32;4.82;;;20.60;74.60;;;;;;6217285;23;20498;-67
2023/05/03 07:07:20;;;;;;;3.67;3.38;;;;;;;;;;6217149;23;20176;-67
2023/05/03 07:09:48;;;;;;;7.38;6.22;;;23.20;72.60;;;;;;6216883;23;20196;-67
2023/05/03 07:12:15;;;;;;;6.07;5.53;;;23.50;58.60;;;;;;6217181;23;20172;-68
2023/05/03 07:14:42;;;;;;;3.47;3.17;;;23.60;59.20;;;;;;6216764;23;20630;-67
2023/05/03 07:17:09;;;;;;;2.55;2.45;;;23.10;68.90;;;;;;6217163;23;20172;-67
2023/05/03 07:19:36;;;;;;;2.92;2.72;;;24.00;61.20;;;;;;6217331;23;20192;-68
2023/05/03 07:22:03;;;;;;;2.50;2.40;;;23.50;61.00;;;;;;6216904;23;20629;-67
2023/05/03 07:24:31;;;;;;;3.53;2.85;;;23.40;59.80;;;;;;6216615;23;20188;-67
2023/05/03 07:26:58;;;;;;;3.30;3.10;;;23.10;56.20;;;;;;6217104;23;20195;-67
2023/05/03 07:29:25;;;;;;;2.63;2.53;;;22.10;58.30;;;;;;6217131;23;20203;-67
2023/05/03 07:31:51;;;;;;;4.53;4.22;;;22.90;56.90;;;;;;6217270;23;20176;-67
2023/05/03 07:34:18;;;;;;;2.70;2.33;;;23.00;55.00;;;;;;6216680;23;20655;-67
2023/05/03 07:36:45;;;;;;;4.00;3.60;;;24.30;56.00;;;;;;6217032;23;20183;-67
2023/05/03 07:39:11;;;;;;;3.17;2.85;;;24.90;50.20;;;;;;6217280;23;20227;-68
2023/05/03 07:41:40;;;;;;;3.05;2.75;;;24.60;54.90;;;;;;6218311;23;20559;-68
2023/05/03 07:44:07;;;;;;;2.85;2.72;;;24.70;52.70;;;;;;6217949;23;20207;-67
2023/05/03 07:46:34;;;;;;;2.85;2.53;;;24.30;48.70;;;;;;6219325;23;20176;-67
2023/05/03 07:49:01;;;;;;;4.07;3.78;;;23.30;52.60;;;;;;6216928;23;20503;-67
2023/05/03 07:51:27;;;;;;;3.45;3.15;;;23.30;51.10;;;;;;6216837;23;20187;-67
2023/05/03 07:53:55;;;;;;;4.07;3.47;;;23.00;55.00;;;;;;6216912;23;20174;-68
2023/05/03 07:56:22;;;;;;;4.38;3.97;;;22.70;55.70;;;;;;6217158;23;20172;-68
2023/05/03 07:58:50;;;;;;;3.70;3.55;;;22.30;54.50;;;;;;6216809;23;20203;-69
2023/05/03 08:01:17;;;;;;;3.47;3.28;;;21.70;59.90;;;;;;6216519;23;20494;-70
2023/05/03 08:03:43;;;;;;;3.33;3.17;;;21.70;55.50;;;;;;6216820;23;20215;-69
2023/05/03 08:06:10;;;;;;;3.13;3.00;;;21.30;57.70;;;;;;6216715;23;20180;-69
2023/05/03 08:08:37;;;;;;;2.13;2.03;;;21.30;57.30;;;;;;6216580;23;20203;-69
2023/05/03 08:11:04;;;;;;;3.20;3.00;;;21.70;58.10;;;;;;6217046;23;20176;-69
2023/05/03 08:13:30;;;;;;;2.85;2.65;;;22.10;56.80;;;;;;6216728;23;20168;-69
2023/05/03 08:15:58;;;;;;;2.30;2.20;;;23.10;56.20;;;;;;6216601;23;20187;-70
2023/05/03 08:18:25;;;;;;;4.07;3.78;;;24.00;52.10;;;;;;6216493;23;20183;-70
2023/05/03 08:20:52;;;;;;;4.15;3.53;;;22.60;51.90;;;;;;6216757;23;20177;-69
2023/05/03 08:23:20;;;;;;;3.42;2.80;;;21.20;54.90;;;;;;6216690;23;20562;-69
2023/05/03 08:25:47;;;;;;;2.40;2.05;;;21.10;59.70;;;;;;6216742;23;20195;-69
2023/05/03 08:28:14;;;;;;;4.55;4.22;;;21.50;57.90;;;;;;6216291;23;20177;-68
2023/05/03 08:30:41;;;;;;;5.15;4.72;;;20.00;59.00;;;;;;6216476;23;20172;-69
2023/05/03 08:33:09;;;;;;;3.67;3.35;;;19.30;61.20;;;;;;6216352;23;20180;-70
2023/05/03 08:35:36;;;;;;;3.35;3.17;;;18.70;69.30;;;;;;6217322;23;20457;-67
2023/05/03 08:38:03;;;;;;;3.20;3.00;;;18.40;69.00;;;;;;6216404;23;20172;-69
2023/05/03 08:40:34;;;;;;;4.25;3.92;;;18.20;71.40;;;;;;6216110;23;20196;-69
2023/05/03 08:43:08;;;;;;;3.25;3.05;;;17.70;71.30;;;;;;6216975;23;20160;-69
2023/05/03 08:45:35;;;;;;;4.72;4.32;;;17.40;75.20;;;;;;6216323;23;20160;-69
2023/05/03 08:48:03;;;;;;;6.03;4.85;;;17.00;78.90;;;;;;6216218;23;20172;-69
2023/05/03 08:50:36;;;;;;;5.50;4.53;;;16.40;60.30;;;;;;6216027;23;20198;-69
2023/05/03 08:53:03;;;;;;;5.75;5.32;;;15.90;72.00;;;;;;6216271;23;20161;-69
2023/05/03 08:55:30;;;;;;;5.30;4.80;;;15.60;72.30;;;;;;6216205;23;20179;-69
2023/05/03 08:57:56;;;;;;;4.25;3.95;;;15.20;90.10;;;;;;6215945;23;20625;-69
2023/05/03 09:00:28;;;;;;;5.43;4.97;;;15.20;94.80;;;;;;6216155;23;20203;-69
2023/05/03 09:02:55;;;;;;;4.88;4.10;;;15.10;94.60;;;;;;6216378;23;20161;-69
2023/05/03 09:05:34;;;;;;;5.38;4.88;;;15.10;95.80;;;;;;6216512;23;20252;-69
2023/05/03 09:08:02;;;;;;;5.68;4.65;;;15.00;94.70;;;;;;6215700;23;20630;-70
2023/05/03 09:10:29;;;;;;;5.15;4.50;;;14.90;97.70;;;;;;6215994;23;20204;-69
2023/05/03 09:12:58;;;;;;;5.13;4.63;;;15.00;93.30;;;;;;6215662;23;20222;-69
2023/05/03 09:15:28;;;;;;;4.40;4.10;;;15.00;93.30;;;;;;6216018;23;20180;-68
2023/05/03 09:18:07;;;;;;;4.63;4.32;;;15.00;95.60;;;;;;6216404;23;20226;-68
2023/05/03 09:20:37;;;;;;;5.95;5.00;;;15.20;89.10;;;;;;6215445;23;20331;-69
2023/05/03 09:23:04;;;;;;;4.53;4.13;;;15.20;88.10;;;;;;6215659;23;20176;-69
2023/05/03 09:25:41;;;;;;;5.15;4.65;;;15.40;91.80;;;;;;6216250;23;20188;-69
2023/05/03 09:28:08;;;;;;;4.63;4.32;;;15.40;82.40;;;;;;6216295;23;20164;-69
2023/05/03 09:30:35;;;;;;;4.95;4.65;;;15.40;81.10;;;;;;6215832;23;20552;-69
2023/05/03 09:33:03;;;;;;;9.20;5.70;;;15.30;71.90;;;;;;6215524;23;20179;-68
2023/05/03 09:35:31;;;;;;;4.28;3.97;;;15.10;70.20;;;;;;6215956;23;20192;-69
2023/05/03 09:37:59;;;;;;;4.90;4.50;;;15.10;75.10;;;;;;6215558;23;20638;-70
2023/05/03 09:40:25;;;;;;;4.43;4.13;;;15.10;75.10;;;;;;6215778;23;20511;-70
2023/05/03 09:43:09;;;;;;;5.82;4.93;;;15.10;77.50;;;;;;6216151;23;20223;-70
2023/05/03 09:45:36;;;;;;;5.25;4.65;;;15.10;74.30;;;;;;6216003;23;20180;-70
2023/05/03 09:48:04;;;;;;;5.10;4.70;;;15.00;74.10;;;;;;6215728;23;20545;-69
2023/05/03 09:50:33;;;;;;;4.97;4.57;;;15.00;75.90;;;;;;6215973;23;20231;-68
2023/05/03 09:53:03;;;;;;;4.90;4.50;;;15.00;72.70;;;;;;6216196;23;20223;-69
2023/05/03 09:55:33;;;;;;;5.60;5.20;;;14.90;72.90;;;;;;6216115;23;20516;-69
2023/05/03 09:58:05;;;;;;;4.72;4.30;;;14.80;78.00;;;;;;6215992;23;20532;-69
2023/05/03 10:00:35;;;;;;;4.18;3.88;;;14.80;71.30;;;;;;6215372;23;20262;-69
2023/05/03 10:03:04;;;;;;;5.10;4.07;;;14.80;73.90;;;;;;6215554;23;20161;-69
2023/05/03 10:05:33;;;;;;;4.03;3.63;;;14.70;70.20;;;;;;6215515;23;20200;-69
2023/05/03 10:08:04;;;;;;;4.47;4.18;;;14.80;72.20;;;;;;6215785;23;20173;-69
2023/05/03 10:10:33;;;;;;;4.53;4.18;;;14.70;71.30;;;;;;6215679;23;20197;-69
2023/05/03 10:13:02;;;;;;;4.55;4.25;;;14.70;69.30;;;;;;6215968;23;20176;-69
2023/05/03 10:15:30;;;;;;;4.72;4.25;;;14.60;73.20;;;;;;6215287;23;20650;-67
2023/05/03 10:18:02;;;;;;;4.60;4.28;;;14.60;72.00;;;;;;6215712;23;20176;-68
2023/05/03 10:20:33;;;;;;;5.10;4.70;;;14.70;72.60;;;;;;6215479;23;20223;-68
2023/05/03 10:23:12;;;;;;;4.30;3.90;;;14.60;69.30;;;;;;6215936;23;20161;-68
2023/05/03 10:25:39;;;;;;;4.88;4.47;;;14.60;66.50;;;;;;6215442;23;20200;-69
2023/05/03 10:28:08;;;;;;;5.25;4.85;;;14.60;67.90;;;;;;6215639;23;20173;-68
2023/05/03 10:30:36;;;;;;;3.72;3.53;;;14.50;64.10;;;;;;6215575;23;20196;-69
2023/05/03 10:33:33;;;;;;;5.07;4.65;;;14.60;64.40;;;;;;6215806;23;20216;-69
2023/05/03 10:36:05;;;;;;;5.85;5.32;;;14.60;62.00;;;;;;6215919;23;20169;-68
2023/05/03 10:38:33;;;;;;;4.32;4.03;;;14.50;68.10;;;;;;6215738;23;20193;-68
2023/05/03 10:41:02;;;;;;;4.80;4.38;;;14.60;69.20;;;;;;6215831;23;20173;-69
2023/05/03 10:43:47;;;;;;;4.82;4.43;;;14.80;66.70;;;;;;6216034;23;20204;-69
2023/05/03 10:46:38;;;;;;;3.78;3.47;;;14.80;60.80;;;;;;6217533;23;20172;-69
2023/05/03 10:49:16;;;;;;;3.60;3.40;;;14.90;66.20;;;;;;6194742;23;20288;-70
2023/05/03 10:51:44;;;;;;;4.95;3.97;;;14.90;59.40;;;;;;6216812;23;20593;-69
2023/05/03 10:54:12;;;;;;;4.22;3.83;;;14.90;56.00;;;;;;6217340;23;20191;-69
2023/05/03 10:56:55;;;;;;;3.95;3.67;;;14.80;57.10;;;;;;6217435;23;20180;-69
2023/05/03 10:59:23;;;;;;;4.00;3.55;;;14.80;57.10;;;;;;6217046;23;20200;-69
2023/05/03 11:01:51;;;;;;;4.80;4.35;;;14.80;57.40;;;;;;6217187;23;20173;-69
2023/05/03 11:04:37;;;;;;;3.78;3.45;;;14.70;56.50;;;;;;6217490;23;20192;-70
2023/05/03 11:07:04;;;;;;;4.13;3.83;;;14.70;60.60;;;;;;6216797;23;20603;-69
2023/05/03 11:09:34;;;;;;;3.40;3.20;;;14.80;57.50;;;;;;6217020;23;20558;-69
2023/05/03 11:12:04;;;;;;;4.63;4.05;;;14.80;55.80;;;;;;6217128;23;20184;-69
2023/05/03 11:14:31;;;;;;;4.80;4.32;;;14.90;57.20;;;;;;6217093;23;20157;-69
2023/05/03 11:16:58;;;;;;;3.35;3.05;;;15.00;58.40;;;;;;6217260;23;20200;-69
2023/05/03 11:19:25;;;;;;;3.67;3.22;;;15.00;55.80;;;;;;6217427;23;20192;-70
2023/05/03 11:21:52;;;;;;;5.65;3.25;;;15.10;54.20;;;;;;6217000;23;20177;-69
2023/05/03 11:24:19;;;;;;;4.57;3.30;;;15.10;49.80;;;;;;6217235;23;20193;-69
2023/05/03 11:26:47;;;;;;;3.40;3.03;;;15.10;50.00;;;;;;6216786;23;20177;-70
2023/05/03 11:29:16;;;;;;;3.00;2.80;;;15.00;50.30;;;;;;6216720;23;20196;-69
2023/05/03 11:31:43;;;;;;;2.60;2.50;;;15.10;49.90;;;;;;6217207;23;20157;-69
2023/05/03 11:34:10;;;;;;;3.20;3.00;;;15.10;51.70;;;;;;6217185;23;20181;-69
2023/05/03 11:36:37;;;;;;;2.92;2.78;;;15.20;50.60;;;;;;6217278;23;20173;-69
2023/05/03 11:39:05;;;;;;;3.55;3.35;;;15.30;51.00;;;;;;6216838;23;20250;-69
2023/05/03 11:41:32;;;;;;;2.65;2.55;;;15.30;51.50;;;;;;6216851;23;20546;-69
2023/05/03 11:44:02;;;;;;;2.90;2.70;;;15.40;52.20;;;;;;6216496;23;20704;-69
2023/05/03 11:46:34;;;;;;;2.70;2.50;;;15.50;49.90;;;;;;6216564;23;20509;-69
2023/05/03 11:49:01;;;;;;;2.80;2.70;;;15.50;50.00;;;;;;6216467;23;20202;-69
2023/05/03 11:51:28;;;;;;;3.13;2.90;;;15.50;50.40;;;;;;6216733;23;20183;-69
2023/05/03 11:53:56;;;;;;;3.53;3.33;;;15.60;51.10;;;;;;6216702;23;20173;-69
2023/05/03 11:56:24;;;;;;;4.82;3.47;;;15.60;47.50;;;;;;6227244;23;20169;-70
2023/05/03 11:58:52;;;;;;;3.22;3.08;;;15.60;48.50;;;;;;6226837;23;20542;-69
2023/05/03 12:01:22;;;;;;;3.38;3.17;;;15.50;48.30;;;;;;6226089;23;20490;-69
2023/05/03 12:03:53;;;;;;;3.22;3.03;;;15.50;46.70;;;;;;6218481;23;20263;-69
2023/05/03 12:06:20;;;;;;;3.00;2.80;;;15.50;49.40;;;;;;6216263;23;20188;-68
2023/05/03 12:08:47;;;;;;;2.38;2.28;;;15.60;48.40;;;;;;6216571;23;20196;-69
2023/05/03 12:11:13;;;;;;;2.40;2.30;;;15.50;44.80;;;;;;6216711;23;20251;-70
2023/05/03 12:13:40;;;;;;;3.05;2.85;;;15.60;44.20;;;;;;6216574;23;20185;-69
2023/05/03 12:16:08;;;;;;;3.92;3.63;;;15.60;45.30;;;;;;6216525;23;20180;-69
2023/05/03 12:18:50;;;;;;;3.03;2.90;;;15.60;46.70;;;;;;6216111;23;20505;-70
2023/05/03 12:21:18;;;;;;;3.90;3.60;;;15.60;48.40;;;;;;6216114;23;20627;-70
2023/05/03 12:23:48;;;;;;;3.75;3.55;;;15.70;49.10;;;;;;6216191;23;20181;-71
2023/05/03 12:26:15;;;;;;;3.47;3.22;;;15.70;46.60;;;;;;6216405;23;20212;-70
2023/05/03 12:28:42;;;;;;;3.50;3.20;;;15.70;44.90;;;;;;6215974;23;20662;-71
2023/05/03 12:31:09;;;;;;;3.03;2.83;;;15.70;43.70;;;;;;6216815;23;20177;-70
2023/05/03 12:33:36;;;;;;;4.43;4.03;;;15.70;44.50;;;;;;6216351;23;20255;-72
2023/05/03 12:36:05;;;;;;;4.25;3.85;;;15.70;45.20;;;;;;6215898;23;20630;-70
2023/05/03 12:38:32;;;;;;;3.33;3.13;;;15.60;44.30;;;;;;6215821;23;20674;-70
2023/05/03 12:40:59;;;;;;;3.83;3.45;;;15.60;44.60;;;;;;6216232;23;20246;-71
2023/05/03 12:43:26;;;;;;;3.20;2.80;;;15.60;45.20;;;;;;6216195;23;20177;-69
2023/05/03 12:45:53;;;;;;;2.92;2.72;;;15.70;46.50;;;;;;6216435;23;20192;-70
2023/05/03 12:48:23;;;;;;;3.00;2.70;;;15.70;47.50;;;;;;6216145;23;20181;-71
2023/05/03 12:50:50;;;;;;;2.67;2.58;;;15.80;43.70;;;;;;6216677;23;20164;-71
2023/05/03 12:53:18;;;;;;;4.90;2.60;;;15.90;44.70;;;;;;6216138;23;20195;-70
2023/05/03 12:55:45;;;;;;;3.30;2.50;;;15.90;45.10;;;;;;6216223;23;20173;-70
2023/05/03 12:58:11;;;;;;;2.50;2.40;;;15.90;43.50;;;;;;6216023;23;20172;-70